createdAt,value
2019-03-10T00:00:21.803Z,1003.00
2019-03-10T00:01:22.065Z,1002.98
2019-03-10T00:02:21.822Z,1003.06
2019-03-10T00:03:21.744Z,1003.02
2019-03-10T00:04:22.516Z,1002.96
2019-03-10T00:05:21.783Z,1003.00
2019-03-10T00:06:21.737Z,1002.93
2019-03-10T00:07:21.745Z,1003.02
2019-03-10T00:08:21.706Z,1003.03
2019-03-10T00:09:21.700Z,1003.05
2019-03-10T00:10:21.970Z,1003.09
2019-03-10T00:11:22.574Z,1003.11
2019-03-10T00:12:21.689Z,1003.08
2019-03-10T00:13:21.662Z,1003.12
2019-03-10T00:14:21.627Z,1003.16
2019-03-10T00:15:21.681Z,1003.14
2019-03-10T00:16:21.736Z,1003.05
2019-03-10T00:17:21.694Z,1003.12
2019-03-10T00:18:21.755Z,1003.12
2019-03-10T00:19:21.649Z,1003.11
2019-03-10T00:20:22.594Z,1003.08
2019-03-10T00:21:21.579Z,1003.09
2019-03-10T00:22:21.590Z,1003.10
2019-03-10T00:23:21.795Z,1003.12
2019-03-10T00:24:22.008Z,1003.11
2019-03-10T00:25:21.669Z,1003.03
2019-03-10T00:26:21.710Z,1003.07
2019-03-10T00:27:21.635Z,1003.02
2019-03-10T00:28:21.601Z,1003.09
2019-03-10T00:29:21.551Z,1003.10
2019-03-10T00:30:21.467Z,1003.19
2019-03-10T00:31:21.450Z,1003.13
2019-03-10T00:32:21.441Z,1003.12
2019-03-10T00:33:22.078Z,1003.04
2019-03-10T00:34:21.523Z,1003.12
2019-03-10T00:35:21.750Z,1003.19
2019-03-10T00:36:21.561Z,1003.15
2019-03-10T00:37:21.441Z,1003.16
2019-03-10T00:38:21.452Z,1003.22
2019-03-10T00:39:21.415Z,1003.20
2019-03-10T00:40:21.421Z,1003.26
2019-03-10T00:41:21.362Z,1003.24
2019-03-10T00:42:21.367Z,1003.33
2019-03-10T00:43:21.365Z,1003.24
2019-03-10T00:44:21.379Z,1003.44
2019-03-10T00:45:31.143Z,1003.34
2019-03-10T00:47:33.054Z,1003.37
2019-03-10T00:48:33.107Z,1003.44
2019-03-10T00:49:33.105Z,1003.40
2019-03-10T00:50:33.051Z,1003.31
2019-03-10T00:51:34.355Z,1003.36
2019-03-10T00:52:33.008Z,1003.35
2019-03-10T00:53:32.982Z,1003.33
2019-03-10T00:54:32.947Z,1003.30
2019-03-10T00:55:32.950Z,1003.36
2019-03-10T00:56:33.733Z,1003.34
2019-03-10T00:57:32.987Z,1003.29
2019-03-10T00:58:32.982Z,1003.16
2019-03-10T00:59:32.914Z,1003.29
2019-03-10T01:00:32.933Z,1003.27
2019-03-10T01:01:32.870Z,1003.21
2019-03-10T01:02:32.909Z,1003.19
2019-03-10T01:03:32.914Z,1003.19
2019-03-10T01:04:32.876Z,1003.18
2019-03-10T01:05:32.904Z,1003.19
2019-03-10T01:06:33.702Z,1003.14
2019-03-10T01:07:32.828Z,1003.19
2019-03-10T01:08:32.827Z,1003.17
2019-03-10T01:09:32.868Z,1003.16
2019-03-10T01:10:32.861Z,1003.21
2019-03-10T01:11:32.802Z,1003.18
2019-03-10T01:12:32.816Z,1003.11
2019-03-10T01:13:32.762Z,1003.06
2019-03-10T01:14:32.815Z,1003.10
2019-03-10T01:15:32.806Z,1003.00
2019-03-10T01:16:32.770Z,1003.06
2019-03-10T01:17:32.731Z,1003.08
2019-03-10T01:18:32.754Z,1003.09
2019-03-10T01:19:32.772Z,1003.09
2019-03-10T01:20:32.824Z,1003.13
2019-03-10T01:21:32.684Z,1003.15
2019-03-10T01:22:32.743Z,1003.04
2019-03-10T01:23:32.718Z,1003.05
2019-03-10T01:24:32.730Z,1002.98
2019-03-10T01:25:32.691Z,1002.96
2019-03-10T01:26:32.658Z,1002.99
2019-03-10T01:27:32.651Z,1002.99
2019-03-10T01:28:32.661Z,1003.05
2019-03-10T01:29:32.781Z,1003.03
2019-03-10T01:30:33.697Z,1003.02
2019-03-10T01:31:32.636Z,1003.04
2019-03-10T01:32:32.573Z,1003.01
2019-03-10T01:33:32.583Z,1002.97
2019-03-10T01:34:32.537Z,1002.98
2019-03-10T01:35:32.544Z,1002.92
2019-03-10T01:36:32.564Z,1002.96
2019-03-10T01:37:32.540Z,1003.02
2019-03-10T01:38:32.529Z,1003.00
2019-03-10T01:39:32.495Z,1003.02
2019-03-10T01:40:32.545Z,1002.98
2019-03-10T01:41:33.198Z,1002.97
2019-03-10T01:42:32.527Z,1002.91
2019-03-10T01:43:32.470Z,1002.88
2019-03-10T01:44:32.427Z,1002.86
2019-03-10T01:45:40.980Z,1002.86
2019-03-10T01:46:32.454Z,1002.78
2019-03-10T01:47:32.412Z,1002.77
2019-03-10T01:48:32.410Z,1002.77
2019-03-10T01:49:32.401Z,1002.75
2019-03-10T01:50:32.375Z,1002.81
2019-03-10T01:51:32.405Z,1002.83
2019-03-10T01:52:32.407Z,1002.84
2019-03-10T01:53:32.327Z,1002.81
2019-03-10T01:54:32.321Z,1002.83
2019-03-10T01:55:32.340Z,1002.83
2019-03-10T01:56:32.353Z,1002.75
2019-03-10T01:57:32.306Z,1002.68
2019-03-10T01:58:32.324Z,1002.69
2019-03-10T01:59:32.365Z,1002.67
2019-03-10T02:00:32.277Z,1002.74
2019-03-10T02:01:32.248Z,1002.74
2019-03-10T02:02:32.274Z,1002.70
2019-03-10T02:03:32.260Z,1002.64
2019-03-10T02:04:32.264Z,1002.68
2019-03-10T02:05:32.304Z,1002.68
2019-03-10T02:06:32.221Z,1002.71
2019-03-10T02:07:32.207Z,1002.70
2019-03-10T02:08:32.179Z,1002.73
2019-03-10T02:09:32.212Z,1002.69
2019-03-10T02:10:32.173Z,1002.68
2019-03-10T02:11:32.199Z,1002.57
2019-03-10T02:12:32.139Z,1002.64
2019-03-10T02:13:32.124Z,1002.66
2019-03-10T02:14:32.183Z,1002.64
2019-03-10T02:15:32.152Z,1002.68
2019-03-10T02:16:32.113Z,1002.65
2019-03-10T02:17:32.080Z,1002.58
2019-03-10T02:18:32.138Z,1002.49
2019-03-10T02:19:32.085Z,1002.46
2019-03-10T02:20:32.198Z,1002.45
2019-03-10T02:21:32.064Z,1002.48
2019-03-10T02:22:32.064Z,1002.54
2019-03-10T02:23:32.038Z,1002.48
2019-03-10T02:24:32.039Z,1002.43
2019-03-10T02:25:32.072Z,1002.45
2019-03-10T02:26:32.019Z,1002.55
2019-03-10T02:27:31.991Z,1002.51
2019-03-10T02:28:31.987Z,1002.50
2019-03-10T02:29:32.009Z,1002.44
2019-03-10T02:30:32.068Z,1002.44
2019-03-10T02:31:32.097Z,1002.40
2019-03-10T02:32:32.003Z,1002.42
2019-03-10T02:33:31.973Z,1002.42
2019-03-10T02:34:31.973Z,1002.37
2019-03-10T02:35:31.951Z,1002.45
2019-03-10T02:36:31.889Z,1002.41
2019-03-10T02:37:31.921Z,1002.33
2019-03-10T02:38:31.863Z,1002.40
2019-03-10T02:39:31.877Z,1002.39
2019-03-10T02:40:31.864Z,1002.33
2019-03-10T02:41:31.944Z,1002.29
2019-03-10T02:42:31.869Z,1002.27
2019-03-10T02:43:31.791Z,1002.28
2019-03-10T02:44:32.115Z,1002.30
2019-03-10T02:45:31.793Z,1002.26
2019-03-10T02:46:31.880Z,1002.25
2019-03-10T02:47:31.835Z,1002.19
2019-03-10T02:48:31.790Z,1002.08
2019-03-10T02:49:31.740Z,1002.21
2019-03-10T02:50:31.733Z,1002.15
2019-03-10T02:51:31.735Z,1002.19
2019-03-10T02:52:31.738Z,1002.20
2019-03-10T02:53:31.725Z,1002.20
2019-03-10T02:54:31.717Z,1002.17
2019-03-10T02:55:31.721Z,1002.18
2019-03-10T02:56:32.250Z,1002.22
2019-03-10T02:57:31.724Z,1002.16
2019-03-10T02:58:31.654Z,1002.22
2019-03-10T02:59:31.685Z,1002.23
2019-03-10T03:00:31.649Z,1002.21
2019-03-10T03:01:31.616Z,1002.29
2019-03-10T03:02:31.640Z,1002.27
2019-03-10T03:03:31.626Z,1002.26
2019-03-10T03:04:31.603Z,1002.23
2019-03-10T03:05:31.630Z,1002.27
2019-03-10T03:06:31.550Z,1002.24
2019-03-10T03:07:31.552Z,1002.20
2019-03-10T03:08:31.539Z,1002.16
2019-03-10T03:09:31.557Z,1002.25
2019-03-10T03:10:31.532Z,1002.19
2019-03-10T03:11:31.542Z,1002.24
2019-03-10T03:12:31.505Z,1002.20
2019-03-10T03:13:31.523Z,1002.21
2019-03-10T03:14:31.584Z,1002.10
2019-03-10T03:15:31.563Z,1002.12
2019-03-10T03:16:31.580Z,1002.07
2019-03-10T03:17:31.526Z,1002.07
2019-03-10T03:18:31.490Z,1002.06
2019-03-10T03:19:31.451Z,1002.11
2019-03-10T03:20:31.428Z,1002.01
2019-03-10T03:21:42.420Z,1002.02
2019-03-10T03:22:32.413Z,1002.05
2019-03-10T03:23:31.490Z,1002.00
2019-03-10T03:24:31.427Z,1002.01
2019-03-10T03:25:31.416Z,1002.03
2019-03-10T03:26:31.390Z,1001.99
2019-03-10T03:27:31.367Z,1002.11
2019-03-10T03:28:31.392Z,1001.92
2019-03-10T03:29:31.439Z,1001.97
2019-03-10T03:30:31.348Z,1001.91
2019-03-10T03:31:31.366Z,1001.93
2019-03-10T03:32:31.310Z,1001.97
2019-03-10T03:33:31.305Z,1001.99
2019-03-10T03:34:31.336Z,1001.92
2019-03-10T03:35:31.273Z,1001.94
2019-03-10T03:36:31.251Z,1001.89
2019-03-10T03:37:31.299Z,1001.81
2019-03-10T03:38:31.299Z,1001.87
2019-03-10T03:39:31.237Z,1001.79
2019-03-10T03:40:31.277Z,1001.87
2019-03-10T03:41:31.205Z,1001.86
2019-03-10T03:42:31.310Z,1001.86
2019-03-10T03:43:31.215Z,1001.89
2019-03-10T03:44:31.260Z,1001.88
2019-03-10T03:45:31.311Z,1001.85
2019-03-10T03:46:31.220Z,1001.89
2019-03-10T03:47:31.155Z,1001.85
2019-03-10T03:48:31.178Z,1001.88
2019-03-10T03:49:31.138Z,1001.82
2019-03-10T03:50:31.137Z,1001.84
2019-03-10T03:51:31.229Z,1001.84
2019-03-10T03:52:31.125Z,1001.83
2019-03-10T03:53:41.379Z,1001.82
2019-03-10T03:54:41.385Z,1001.83
2019-03-10T03:55:31.038Z,1001.89
2019-03-10T03:56:31.120Z,1001.74
2019-03-10T03:57:31.256Z,1001.77
2019-03-10T03:58:31.047Z,1001.83
2019-03-10T03:59:31.026Z,1001.76
2019-03-10T04:00:30.987Z,1001.79
2019-03-10T04:01:30.998Z,1001.77
2019-03-10T04:02:31.513Z,1001.77
2019-03-10T04:03:31.013Z,1001.80
2019-03-10T04:04:30.964Z,1001.79
2019-03-10T04:05:30.996Z,1001.75
2019-03-10T04:06:31.005Z,1001.75
2019-03-10T04:07:30.934Z,1001.80
2019-03-10T04:08:30.993Z,1001.81
2019-03-10T04:09:30.977Z,1001.83
2019-03-10T04:10:31.080Z,1001.84
2019-03-10T04:11:30.960Z,1001.82
2019-03-10T04:12:30.968Z,1001.83
2019-03-10T04:13:30.904Z,1001.92
2019-03-10T04:14:30.886Z,1001.94
2019-03-10T04:15:30.890Z,1001.93
2019-03-10T04:16:30.867Z,1001.87
2019-03-10T04:17:30.853Z,1001.94
2019-03-10T04:18:30.852Z,1001.94
2019-03-10T04:19:30.948Z,1001.90
2019-03-10T04:20:30.809Z,1001.92
2019-03-10T04:21:30.780Z,1001.99
2019-03-10T04:22:30.786Z,1001.99
2019-03-10T04:23:30.798Z,1001.96
2019-03-10T04:24:30.787Z,1001.98
2019-03-10T04:25:30.730Z,1001.92
2019-03-10T04:26:30.776Z,1002.01
2019-03-10T04:27:30.726Z,1001.99
2019-03-10T04:28:30.712Z,1001.98
2019-03-10T04:29:30.768Z,1002.00
2019-03-10T04:30:30.697Z,1001.95
2019-03-10T04:31:30.708Z,1001.95
2019-03-10T04:32:30.765Z,1001.97
2019-03-10T04:33:30.684Z,1002.00
2019-03-10T04:34:30.683Z,1001.99
2019-03-10T04:35:30.694Z,1001.97
2019-03-10T04:36:30.662Z,1001.98
2019-03-10T04:37:30.659Z,1002.04
2019-03-10T04:38:30.627Z,1001.97
2019-03-10T04:39:30.578Z,1001.95
2019-03-10T04:40:30.654Z,1001.97
2019-03-10T04:41:30.593Z,1001.97
2019-03-10T04:42:30.571Z,1001.96
2019-03-10T04:43:30.582Z,1001.94
2019-03-10T04:44:30.557Z,1001.95
2019-03-10T04:45:30.595Z,1001.91
2019-03-10T04:46:30.544Z,1001.86
2019-03-10T04:47:30.556Z,1001.84
2019-03-10T04:48:30.514Z,1001.91
2019-03-10T04:49:30.516Z,1001.89
2019-03-10T04:50:30.530Z,1001.90
2019-03-10T04:51:30.500Z,1001.90
2019-03-10T04:52:31.002Z,1001.87
2019-03-10T04:53:30.458Z,1001.86
2019-03-10T04:54:30.496Z,1001.81
2019-03-10T04:55:30.422Z,1001.84
2019-03-10T04:56:30.437Z,1001.90
2019-03-10T04:57:30.486Z,1001.94
2019-03-10T04:58:30.457Z,1001.89
2019-03-10T04:59:30.385Z,1001.92
2019-03-10T05:00:30.379Z,1001.87
2019-03-10T05:01:30.389Z,1001.87
2019-03-10T05:02:30.352Z,1001.88
2019-03-10T05:03:30.387Z,1001.94
2019-03-10T05:04:31.690Z,1001.89
2019-03-10T05:05:30.332Z,1001.91
2019-03-10T05:06:30.396Z,1001.87
2019-03-10T05:07:30.355Z,1001.95
2019-03-10T05:08:30.357Z,1001.91
2019-03-10T05:09:30.368Z,1001.93
2019-03-10T05:10:30.270Z,1001.94
2019-03-10T05:11:30.269Z,1001.97
2019-03-10T05:12:30.287Z,1002.00
2019-03-10T05:13:30.273Z,1001.95
2019-03-10T05:14:30.244Z,1001.97
2019-03-10T05:15:30.399Z,1001.87
2019-03-10T05:16:30.214Z,1001.89
2019-03-10T05:17:30.216Z,1001.93
2019-03-10T05:18:30.204Z,1001.87
2019-03-10T05:19:39.426Z,1001.84
2019-03-10T05:20:30.150Z,1001.80
2019-03-10T05:21:30.160Z,1001.84
2019-03-10T05:22:30.124Z,1001.82
2019-03-10T05:23:30.115Z,1001.83
2019-03-10T05:24:30.119Z,1001.75
2019-03-10T05:25:30.107Z,1001.75
2019-03-10T05:26:30.111Z,1001.69
2019-03-10T05:27:30.093Z,1001.77
2019-03-10T05:28:30.083Z,1001.72
2019-03-10T05:29:30.101Z,1001.74
2019-03-10T05:30:30.050Z,1001.70
2019-03-10T05:31:30.089Z,1001.73
2019-03-10T05:32:30.035Z,1001.73
2019-03-10T05:33:30.016Z,1001.76
2019-03-10T05:34:30.015Z,1001.67
2019-03-10T05:35:29.994Z,1001.76
2019-03-10T05:36:30.000Z,1001.61
2019-03-10T05:37:29.976Z,1001.62
2019-03-10T05:38:29.962Z,1001.61
2019-03-10T05:39:29.969Z,1001.57
2019-03-10T05:40:29.953Z,1001.63
2019-03-10T05:41:29.977Z,1001.58
2019-03-10T05:42:29.975Z,1001.53
2019-03-10T05:43:29.922Z,1001.51
2019-03-10T05:44:29.897Z,1001.46
2019-03-10T05:45:29.895Z,1001.50
2019-03-10T05:46:29.935Z,1001.41
2019-03-10T05:47:29.867Z,1001.49
2019-03-10T05:48:29.877Z,1001.46
2019-03-10T05:49:29.855Z,1001.38
2019-03-10T05:50:29.858Z,1001.40
2019-03-10T05:51:29.836Z,1001.41
2019-03-10T05:52:29.835Z,1001.37
2019-03-10T05:53:29.806Z,1001.38
2019-03-10T05:54:29.814Z,1001.39
2019-03-10T05:55:29.795Z,1001.45
2019-03-10T05:56:29.776Z,1001.37
2019-03-10T05:57:29.785Z,1001.37
2019-03-10T05:58:29.764Z,1001.37
2019-03-10T05:59:29.746Z,1001.29
2019-03-10T06:00:29.747Z,1001.36
2019-03-10T06:01:29.722Z,1001.32
2019-03-10T06:02:29.752Z,1001.28
2019-03-10T06:03:29.719Z,1001.25
2019-03-10T06:04:29.691Z,1001.25
2019-03-10T06:05:29.688Z,1001.23
2019-03-10T06:06:29.678Z,1001.15
2019-03-10T06:07:29.675Z,1001.22
2019-03-10T06:08:29.663Z,1001.16
2019-03-10T06:09:29.647Z,1001.15
2019-03-10T06:10:29.697Z,1001.11
2019-03-10T06:11:29.624Z,1001.14
2019-03-10T06:12:29.596Z,1001.09
2019-03-10T06:13:29.605Z,1001.10
2019-03-10T06:14:29.600Z,1001.09
2019-03-10T06:15:29.632Z,1001.07
2019-03-10T06:16:29.581Z,1001.01
2019-03-10T06:17:29.569Z,1001.04
2019-03-10T06:18:29.583Z,1001.03
2019-03-10T06:19:29.537Z,1001.00
2019-03-10T06:20:29.533Z,1001.12
2019-03-10T06:21:29.525Z,1001.08
2019-03-10T06:22:29.497Z,1001.13
2019-03-10T06:23:29.494Z,1001.11
2019-03-10T06:24:29.533Z,1001.10
2019-03-10T06:25:29.488Z,1001.09
2019-03-10T06:26:29.455Z,1001.03
2019-03-10T06:27:29.463Z,1001.11
2019-03-10T06:28:29.441Z,1001.04
2019-03-10T06:29:29.434Z,1001.11
2019-03-10T06:30:29.437Z,1001.10
2019-03-10T06:31:29.407Z,1001.10
2019-03-10T06:32:29.397Z,1001.08
2019-03-10T06:33:29.389Z,1001.10
2019-03-10T06:34:29.387Z,1001.13
2019-03-10T06:35:29.394Z,1001.09
2019-03-10T06:36:29.370Z,1001.14
2019-03-10T06:37:29.371Z,1001.13
2019-03-10T06:38:29.372Z,1001.11
2019-03-10T06:39:29.320Z,1001.06
2019-03-10T06:40:32.381Z,1001.05
2019-03-10T06:41:29.338Z,1000.97
2019-03-10T06:42:29.292Z,1000.98
2019-03-10T06:43:29.286Z,1000.94
2019-03-10T06:44:29.275Z,1000.91
2019-03-10T06:45:29.261Z,1000.91
2019-03-10T06:46:29.275Z,1000.91
2019-03-10T06:47:29.306Z,1000.88
2019-03-10T06:48:29.263Z,1000.92
2019-03-10T06:49:29.227Z,1000.87
2019-03-10T06:50:29.218Z,1000.92
2019-03-10T06:51:29.222Z,1000.92
2019-03-10T06:52:29.195Z,1000.91
2019-03-10T06:53:29.211Z,1000.89
2019-03-10T06:54:29.183Z,1000.94
2019-03-10T06:55:29.168Z,1000.86
2019-03-10T06:56:29.153Z,1000.91
2019-03-10T06:57:29.146Z,1000.81
2019-03-10T06:58:29.162Z,1000.87
2019-03-10T06:59:29.115Z,1000.83
2019-03-10T07:00:29.119Z,1000.83
2019-03-10T07:01:29.120Z,1000.82
2019-03-10T07:02:29.114Z,1000.86
2019-03-10T07:03:29.984Z,1000.84
2019-03-10T07:04:29.065Z,1000.83
2019-03-10T07:05:29.049Z,1000.79
2019-03-10T07:06:29.049Z,1000.74
2019-03-10T07:07:29.065Z,1000.72
2019-03-10T07:08:29.036Z,1000.68
2019-03-10T07:09:29.114Z,1000.70
2019-03-10T07:10:29.012Z,1000.65
2019-03-10T07:11:28.997Z,1000.67
2019-03-10T07:12:29.017Z,1000.70
2019-03-10T07:13:28.966Z,1000.73
2019-03-10T07:14:29.011Z,1000.64
2019-03-10T07:15:29.121Z,1000.66
2019-03-10T07:16:29.063Z,1000.65
2019-03-10T07:17:29.091Z,1000.64
2019-03-10T07:18:28.959Z,1000.65
2019-03-10T07:19:28.989Z,1000.65
2019-03-10T07:20:28.933Z,1000.63
2019-03-10T07:21:28.907Z,1000.55
2019-03-10T07:22:28.877Z,1000.58
2019-03-10T07:23:29.293Z,1000.54
2019-03-10T07:24:28.922Z,1000.65
2019-03-10T07:25:28.948Z,1000.52
2019-03-10T07:26:28.880Z,1000.64
2019-03-10T07:27:29.282Z,1000.59
2019-03-10T07:28:28.833Z,1000.60
2019-03-10T07:29:28.819Z,1000.56
2019-03-10T07:30:29.631Z,1000.62
2019-03-10T07:31:31.806Z,1000.64
2019-03-10T07:32:29.425Z,1000.59
2019-03-10T07:33:29.174Z,1000.63
2019-03-10T07:34:28.781Z,1000.58
2019-03-10T07:35:28.780Z,1000.57
2019-03-10T07:36:33.131Z,1000.58
2019-03-10T07:37:28.964Z,1000.62
2019-03-10T07:38:28.846Z,1000.64
2019-03-10T07:39:33.849Z,1000.62
2019-03-10T07:40:28.718Z,1000.55
2019-03-10T07:41:30.561Z,1000.61
2019-03-10T07:42:29.424Z,1000.62
2019-03-10T07:43:29.137Z,1000.60
2019-03-10T07:44:28.819Z,1000.59
2019-03-10T07:45:28.805Z,1000.60
2019-03-10T07:46:31.495Z,1000.57
2019-03-10T07:47:28.875Z,1000.56
2019-03-10T07:48:29.408Z,1000.54
2019-03-10T07:49:28.594Z,1000.47
2019-03-10T07:50:28.875Z,1000.49
2019-03-10T07:51:28.612Z,1000.43
2019-03-10T07:52:28.587Z,1000.45
2019-03-10T07:53:32.397Z,1000.42
2019-03-10T07:55:56.940Z,1000.42
2019-03-10T07:56:57.177Z,1000.40
2019-03-10T07:57:56.902Z,1000.47
2019-03-10T07:58:56.910Z,1000.40
2019-03-10T07:59:56.879Z,1000.36
2019-03-10T08:00:56.870Z,1000.35
2019-03-10T08:01:56.867Z,1000.28
2019-03-10T08:04:24.896Z,1000.30
2019-03-10T08:05:24.886Z,1000.27
2019-03-10T08:06:24.882Z,1000.30
2019-03-10T08:07:24.842Z,1000.19
2019-03-10T08:08:24.907Z,1000.25
2019-03-10T08:09:24.825Z,1000.23
2019-03-10T08:10:24.826Z,1000.20
2019-03-10T08:11:24.851Z,1000.20
2019-03-10T08:12:24.809Z,1000.19
2019-03-10T08:13:24.821Z,1000.18
2019-03-10T08:14:24.795Z,1000.22
2019-03-10T08:15:24.802Z,1000.17
2019-03-10T08:16:24.770Z,1000.15
2019-03-10T08:17:24.813Z,1000.15
2019-03-10T08:18:24.813Z,1000.14
2019-03-10T08:19:24.725Z,1000.06
2019-03-10T08:20:24.757Z,1000.05
2019-03-10T08:21:24.759Z,1000.00
2019-03-10T08:22:24.761Z,1000.04
2019-03-10T08:23:24.769Z,1000.04
2019-03-10T08:24:24.720Z,999.99
2019-03-10T08:25:24.669Z,999.90
2019-03-10T08:26:24.647Z,999.85
2019-03-10T08:27:24.727Z,999.78
2019-03-10T08:28:24.642Z,999.67
2019-03-10T08:29:24.649Z,999.63
2019-03-10T08:30:24.628Z,999.59
2019-03-10T08:31:24.635Z,999.61
2019-03-10T08:32:24.581Z,999.55
2019-03-10T08:33:24.798Z,999.57
2019-03-10T08:34:24.657Z,999.54
2019-03-10T08:35:24.621Z,999.56
2019-03-10T08:36:24.565Z,999.55
2019-03-10T08:37:24.559Z,999.49
2019-03-10T08:38:24.535Z,999.47
2019-03-10T08:39:24.552Z,999.50
2019-03-10T08:40:24.713Z,999.46
2019-03-10T08:41:24.589Z,999.46
2019-03-10T08:42:24.503Z,999.43
2019-03-10T08:43:24.760Z,999.44
2019-03-10T08:44:24.548Z,999.42
2019-03-10T08:45:24.476Z,999.42
2019-03-10T08:46:24.469Z,999.41
2019-03-10T08:47:24.463Z,999.39
2019-03-10T08:48:24.426Z,999.38
2019-03-10T08:49:24.461Z,999.40
2019-03-10T08:50:24.622Z,999.40
2019-03-10T08:51:24.437Z,999.42
2019-03-10T08:52:24.429Z,999.38
2019-03-10T08:53:25.249Z,999.39
2019-03-10T08:54:24.373Z,999.37
2019-03-10T08:55:24.425Z,999.34
2019-03-10T08:56:25.241Z,999.33
2019-03-10T08:57:24.450Z,999.26
2019-03-10T08:58:25.237Z,999.33
2019-03-10T08:59:24.336Z,999.37
2019-03-10T09:00:24.314Z,999.31
2019-03-10T09:01:24.309Z,999.24
2019-03-10T09:02:24.296Z,999.26
2019-03-10T09:03:24.326Z,999.27
2019-03-10T09:04:24.268Z,999.26
2019-03-10T09:05:24.283Z,999.26
2019-03-10T09:06:24.235Z,999.27
2019-03-10T09:07:24.251Z,999.24
2019-03-10T09:08:24.364Z,999.20
2019-03-10T09:09:24.207Z,999.23
2019-03-10T09:10:24.231Z,999.17
2019-03-10T09:11:24.256Z,999.14
2019-03-10T09:12:24.255Z,999.15
2019-03-10T09:13:24.178Z,999.11
2019-03-10T09:14:24.161Z,999.16
2019-03-10T09:15:24.155Z,999.06
2019-03-10T09:16:24.174Z,999.08
2019-03-10T09:17:24.248Z,999.10
2019-03-10T09:18:24.207Z,999.07
2019-03-10T09:19:24.115Z,999.04
2019-03-10T09:20:24.144Z,999.04
2019-03-10T09:21:24.343Z,998.98
2019-03-10T09:22:24.092Z,998.99
2019-03-10T09:23:24.056Z,998.94
2019-03-10T09:24:24.878Z,998.96
2019-03-10T09:25:24.062Z,998.89
2019-03-10T09:26:24.048Z,998.89
2019-03-10T09:27:24.023Z,998.89
2019-03-10T09:28:24.047Z,998.87
2019-03-10T09:29:24.097Z,998.83
2019-03-10T09:30:24.051Z,998.81
2019-03-10T09:31:23.977Z,998.79
2019-03-10T09:32:23.948Z,998.81
2019-03-10T09:33:23.956Z,998.76
2019-03-10T09:34:23.948Z,998.77
2019-03-10T09:35:24.034Z,998.72
2019-03-10T09:36:23.937Z,998.68
2019-03-10T09:37:23.902Z,998.70
2019-03-10T09:38:23.900Z,998.63
2019-03-10T09:39:23.925Z,998.60
2019-03-10T09:40:23.901Z,998.61
2019-03-10T09:41:24.765Z,998.56
2019-03-10T09:42:23.855Z,998.56
2019-03-10T09:43:24.761Z,998.51
2019-03-10T09:44:24.746Z,998.47
2019-03-10T09:45:23.848Z,998.49
2019-03-10T09:46:23.906Z,998.41
2019-03-10T09:47:23.838Z,998.42
2019-03-10T09:48:23.805Z,998.43
2019-03-10T09:49:24.252Z,998.43
2019-03-10T09:50:23.837Z,998.46
2019-03-10T09:51:23.843Z,998.38
2019-03-10T09:52:24.293Z,998.36
2019-03-10T09:53:25.260Z,998.38
2019-03-10T09:54:23.738Z,998.35
2019-03-10T09:55:23.745Z,998.32
2019-03-10T09:56:24.748Z,998.31
2019-03-10T09:57:23.708Z,998.24
2019-03-10T09:58:23.708Z,998.24
2019-03-10T09:59:23.737Z,998.20
2019-03-10T10:00:23.742Z,998.19
2019-03-10T10:01:23.692Z,998.23
2019-03-10T10:02:23.622Z,998.22
2019-03-10T10:03:23.633Z,998.22
2019-03-10T10:04:23.620Z,998.22
2019-03-10T10:05:23.624Z,998.19
2019-03-10T10:06:23.618Z,998.18
2019-03-10T10:07:23.591Z,998.14
2019-03-10T10:08:23.579Z,998.10
2019-03-10T10:09:23.550Z,998.08
2019-03-10T10:10:23.583Z,998.05
2019-03-10T10:11:23.546Z,997.99
2019-03-10T10:12:23.558Z,998.05
2019-03-10T10:13:23.616Z,997.99
2019-03-10T10:14:23.513Z,998.01
2019-03-10T10:15:23.508Z,997.99
2019-03-10T10:16:23.515Z,998.01
2019-03-10T10:17:23.520Z,998.01
2019-03-10T10:18:23.474Z,998.01
2019-03-10T10:19:23.466Z,997.96
2019-03-10T10:20:26.568Z,997.98
2019-03-10T10:21:23.488Z,997.92
2019-03-10T10:22:23.555Z,998.00
2019-03-10T10:23:23.421Z,997.89
2019-03-10T10:24:23.426Z,997.92
2019-03-10T10:25:23.412Z,997.87
2019-03-10T10:26:23.429Z,997.86
2019-03-10T10:27:23.374Z,997.77
2019-03-10T10:28:23.394Z,997.69
2019-03-10T10:29:23.396Z,997.68
2019-03-10T10:30:24.755Z,997.69
2019-03-10T10:31:23.418Z,997.69
2019-03-10T10:32:23.312Z,997.68
2019-03-10T10:33:23.710Z,997.64
2019-03-10T10:34:24.270Z,997.70
2019-03-10T10:35:24.115Z,997.66
2019-03-10T10:36:23.263Z,997.57
2019-03-10T10:37:23.239Z,997.54
2019-03-10T10:38:23.234Z,997.50
2019-03-10T10:39:23.260Z,997.48
2019-03-10T10:40:23.263Z,997.39
2019-03-10T10:41:23.540Z,997.41
2019-03-10T10:42:23.308Z,997.44
2019-03-10T10:43:23.765Z,997.40
2019-03-10T10:44:23.295Z,997.41
2019-03-10T10:45:23.212Z,997.35
2019-03-10T10:46:24.240Z,997.30
2019-03-10T10:47:23.173Z,997.40
2019-03-10T10:48:23.170Z,997.36
2019-03-10T10:49:23.767Z,997.38
2019-03-10T10:50:23.161Z,997.40
2019-03-10T10:51:23.322Z,997.36
2019-03-10T10:52:29.772Z,997.41
2019-03-10T10:53:23.499Z,997.42
2019-03-10T10:54:23.072Z,997.45
2019-03-10T10:55:23.924Z,997.42
2019-03-10T10:56:23.122Z,997.46
2019-03-10T10:57:23.063Z,997.46
2019-03-10T10:58:23.116Z,997.43
2019-03-10T10:59:23.057Z,997.42
2019-03-10T11:00:23.036Z,997.40
2019-03-10T11:01:23.024Z,997.44
2019-03-10T11:02:23.045Z,997.44
2019-03-10T11:03:22.980Z,997.42
2019-03-10T11:04:23.034Z,997.36
2019-03-10T11:05:22.958Z,997.40
2019-03-10T11:06:22.944Z,997.37
2019-03-10T11:07:22.933Z,997.31
2019-03-10T11:08:22.964Z,997.23
2019-03-10T11:09:22.982Z,997.21
2019-03-10T11:10:22.929Z,997.19
2019-03-10T11:11:22.889Z,997.10
2019-03-10T11:12:22.931Z,997.01
2019-03-10T11:13:22.898Z,997.00
2019-03-10T11:14:22.848Z,996.96
2019-03-10T11:15:22.928Z,996.85
2019-03-10T11:16:22.841Z,996.85
2019-03-10T11:17:22.844Z,996.88
2019-03-10T11:18:22.831Z,996.87
2019-03-10T11:19:22.808Z,996.88
2019-03-10T11:20:22.797Z,996.87
2019-03-10T11:21:22.824Z,996.81
2019-03-10T11:22:24.522Z,996.73
2019-03-10T11:23:22.777Z,996.72
2019-03-10T11:24:22.772Z,996.75
2019-03-10T11:25:22.767Z,996.70
2019-03-10T11:26:22.764Z,996.67
2019-03-10T11:27:23.343Z,996.69
2019-03-10T11:28:22.731Z,996.70
2019-03-10T11:29:22.720Z,996.65
2019-03-10T11:30:22.714Z,996.68
2019-03-10T11:31:22.736Z,996.73
2019-03-10T11:32:22.736Z,996.74
2019-03-10T11:33:22.678Z,996.74
2019-03-10T11:34:22.645Z,996.74
2019-03-10T11:35:22.649Z,996.67
2019-03-10T11:36:22.650Z,996.71
2019-03-10T11:37:22.609Z,996.71
2019-03-10T11:38:22.773Z,996.77
2019-03-10T11:39:22.593Z,996.73
2019-03-10T11:40:22.590Z,996.71
2019-03-10T11:41:33.030Z,996.70
2019-03-10T11:42:23.596Z,996.71
2019-03-10T11:43:22.883Z,996.68
2019-03-10T11:44:22.603Z,996.65
2019-03-10T11:45:22.602Z,996.61
2019-03-10T11:46:22.548Z,996.59
2019-03-10T11:47:22.523Z,996.56
2019-03-10T11:48:22.528Z,996.55
2019-03-10T11:49:22.502Z,996.56
2019-03-10T11:50:22.496Z,996.52
2019-03-10T11:51:22.469Z,996.48
2019-03-10T11:52:22.489Z,996.49
2019-03-10T11:53:22.456Z,996.47
2019-03-10T11:54:22.415Z,996.40
2019-03-10T11:55:22.485Z,996.39
2019-03-10T11:56:22.418Z,996.34
2019-03-10T11:57:22.480Z,996.35
2019-03-10T11:58:22.450Z,996.31
2019-03-10T11:59:22.440Z,996.26
2019-03-10T12:00:22.922Z,996.23
2019-03-10T12:01:22.408Z,996.21
2019-03-10T12:02:22.368Z,996.24
2019-03-10T12:03:22.396Z,996.21
2019-03-10T12:04:22.391Z,996.14
2019-03-10T12:05:22.428Z,996.15
2019-03-10T12:06:22.761Z,996.07
2019-03-10T12:07:22.776Z,996.09
2019-03-10T12:08:22.369Z,996.07
2019-03-10T12:09:22.279Z,996.08
2019-03-10T12:10:22.258Z,996.06
2019-03-10T12:11:22.361Z,996.04
2019-03-10T12:12:22.288Z,996.00
2019-03-10T12:13:22.213Z,995.94
2019-03-10T12:14:22.232Z,995.94
2019-03-10T12:15:22.211Z,995.93
2019-03-10T12:16:22.221Z,995.91